createdAt,value
2018-02-21T00:01:55.879Z,102276.61
2018-02-21T00:04:59.071Z,102288.96
2018-02-21T00:08:02.421Z,102296.42
2018-02-21T00:11:05.727Z,102296.14
2018-02-21T00:14:08.927Z,102296.52
2018-02-21T00:17:12.184Z,102289.83
2018-02-21T00:20:15.420Z,102292.48
2018-02-21T00:23:18.732Z,102293.31
2018-02-21T00:26:22.014Z,102296.23
2018-02-21T00:29:25.322Z,102299.97
2018-02-21T00:32:28.523Z,102309.64
2018-02-21T00:35:31.794Z,102312.99
2018-02-21T00:38:35.110Z,102315.04
2018-02-21T00:41:38.338Z,102319.32
2018-02-21T00:44:41.605Z,102318.45
2018-02-21T00:47:44.853Z,102319.79
2018-02-21T00:50:48.166Z,102327.07
2018-02-21T00:53:51.438Z,102328.22
2018-02-21T00:56:54.702Z,102334.46
2018-02-21T00:59:58.014Z,102336.33
2018-02-21T01:03:01.245Z,102344.90
2018-02-21T01:06:04.427Z,102343.40
2018-02-21T01:09:07.575Z,102350.19
2018-02-21T01:12:10.715Z,102348.91
2018-02-21T01:15:13.921Z,102348.72
2018-02-21T01:18:17.289Z,102336.51
2018-02-21T01:21:20.570Z,102338.73
2018-02-21T01:24:23.725Z,102343.51
2018-02-21T01:27:26.946Z,102349.19
2018-02-21T01:30:30.326Z,102346.51
2018-02-21T01:33:33.466Z,102343.37
2018-02-21T01:36:36.684Z,102336.21
2018-02-21T01:39:39.842Z,102338.19
2018-02-21T01:42:43.029Z,102334.79
2018-02-21T01:45:46.390Z,102338.08
2018-02-21T01:48:49.558Z,102349.42
2018-02-21T01:51:52.785Z,102341.04
2018-02-21T01:54:56.166Z,102336.99
2018-02-21T01:57:59.417Z,102332.31
2018-02-21T02:01:02.654Z,102336.45
2018-02-21T02:04:05.918Z,102336.86
2018-02-21T02:07:09.148Z,102344.55
2018-02-21T02:10:12.393Z,102345.35
2018-02-21T02:13:15.781Z,102351.48
2018-02-21T02:16:19.109Z,102351.72
2018-02-21T02:19:22.510Z,102362.33
2018-02-21T02:22:25.696Z,102367.61
2018-02-21T02:25:29.151Z,102379.89
2018-02-21T02:28:32.398Z,102380.55
2018-02-21T02:31:35.716Z,102384.90
2018-02-21T02:34:38.978Z,102385.25
2018-02-21T02:37:42.261Z,102388.89
2018-02-21T02:40:45.631Z,102385.57
2018-02-21T02:43:48.877Z,102388.72
2018-02-21T02:46:52.137Z,102388.68
2018-02-21T02:49:55.393Z,102385.40
2018-02-21T02:52:58.620Z,102387.28
2018-02-21T02:56:01.859Z,102389.06
2018-02-21T02:59:05.147Z,102385.93
2018-02-21T03:02:08.502Z,102384.79
2018-02-21T03:05:11.697Z,102384.05
2018-02-21T03:08:14.956Z,102380.46
2018-02-21T03:11:18.250Z,102381.49
2018-02-21T03:14:21.542Z,102375.98
2018-02-21T03:17:24.851Z,102370.65
2018-02-21T03:20:28.146Z,102369.00
2018-02-21T03:23:31.437Z,102370.01
2018-02-21T03:26:34.660Z,102374.40
2018-02-21T03:29:37.931Z,102376.95
2018-02-21T03:32:41.266Z,102382.13
2018-02-21T03:35:44.574Z,102384.63
2018-02-21T03:38:47.916Z,102385.89
2018-02-21T03:41:51.226Z,102383.74
2018-02-21T03:44:54.449Z,102379.29
2018-02-21T03:47:57.749Z,102379.14
2018-02-21T03:51:01.034Z,102380.54
2018-02-21T03:54:04.578Z,102385.79
2018-02-21T03:57:07.769Z,102382.90
2018-02-21T04:00:10.944Z,102381.34
2018-02-21T04:03:14.139Z,102385.36
2018-02-21T04:06:17.429Z,102376.82
2018-02-21T04:09:20.670Z,102378.90
2018-02-21T04:12:23.884Z,102374.42
2018-02-21T04:15:27.126Z,102377.72
2018-02-21T04:18:30.415Z,102386.23
2018-02-21T04:21:33.629Z,102387.38
2018-02-21T04:24:36.882Z,102396.88
2018-02-21T04:27:40.135Z,102402.31
2018-02-21T04:30:43.382Z,102398.58
2018-02-21T04:33:46.790Z,102396.51
2018-02-21T04:36:50.046Z,102398.77
2018-02-21T04:39:53.232Z,102409.06
2018-02-21T04:42:56.485Z,102411.38
2018-02-21T04:45:59.714Z,102414.95
2018-02-21T04:49:02.965Z,102414.82
2018-02-21T04:52:06.263Z,102421.27
2018-02-21T04:55:09.524Z,102426.65
2018-02-21T04:58:12.757Z,102433.21
2018-02-21T05:01:15.983Z,102433.09
2018-02-21T05:04:19.250Z,102436.75
2018-02-21T05:07:22.543Z,102437.48
2018-02-21T05:10:25.797Z,102437.05
2018-02-21T05:13:29.052Z,102439.47
2018-02-21T05:16:32.272Z,102433.21
2018-02-21T05:19:35.453Z,102429.53
2018-02-21T05:22:38.835Z,102419.54
2018-02-21T05:25:42.092Z,102419.06
2018-02-21T05:28:45.368Z,102416.82
2018-02-21T05:31:48.725Z,102409.08
2018-02-21T05:34:51.990Z,102406.34
2018-02-21T05:37:55.360Z,102397.27
2018-02-21T05:40:58.568Z,102394.80
2018-02-21T05:44:01.963Z,102401.02
2018-02-21T05:47:05.429Z,102396.69
2018-02-21T05:50:08.706Z,102399.85
2018-02-21T05:53:11.893Z,102406.06
2018-02-21T05:56:15.196Z,102403.55
2018-02-21T05:59:18.382Z,102401.71
2018-02-21T06:02:21.852Z,102406.15
2018-02-21T06:05:25.095Z,102409.72
2018-02-21T06:08:28.281Z,102412.08
2018-02-21T06:11:31.532Z,102411.86
2018-02-21T06:14:35.301Z,102420.36
2018-02-21T06:17:38.574Z,102417.73
2018-02-21T06:20:41.878Z,102428.19
2018-02-21T06:23:45.189Z,102431.42
2018-02-21T06:26:48.574Z,102424.80
2018-02-21T06:29:51.873Z,102418.57
2018-02-21T06:32:55.108Z,102419.88
2018-02-21T06:35:58.381Z,102414.89
2018-02-21T06:39:01.685Z,102412.66
2018-02-21T06:42:04.933Z,102415.47
2018-02-21T06:45:08.168Z,102418.36
2018-02-21T06:48:11.451Z,102422.01
2018-02-21T06:51:14.750Z,102420.34
2018-02-21T06:54:18.148Z,102422.60
2018-02-21T06:57:21.460Z,102418.34
2018-02-21T07:00:24.683Z,102416.91
2018-02-21T07:03:27.947Z,102412.39
2018-02-21T07:06:31.250Z,102419.92
2018-02-21T07:09:34.570Z,102416.35
2018-02-21T07:12:37.873Z,102415.80
2018-02-21T07:15:41.320Z,102417.28
2018-02-21T07:18:44.656Z,102413.85
2018-02-21T07:21:48.030Z,102414.55
2018-02-21T07:24:51.364Z,102418.39
2018-02-21T07:27:54.650Z,102420.07
2018-02-21T07:30:58.530Z,102420.36
2018-02-21T07:34:01.761Z,102421.25
2018-02-21T07:37:05.008Z,102423.16
2018-02-21T07:40:08.197Z,102415.20
2018-02-21T07:43:11.447Z,102414.92
2018-02-21T07:46:14.732Z,102420.80
2018-02-21T07:49:18.126Z,102424.25
2018-02-21T07:52:21.394Z,102432.50
2018-02-21T07:55:24.706Z,102436.24
2018-02-21T07:58:27.925Z,102436.91
2018-02-21T08:01:31.230Z,102429.83
2018-02-21T08:04:34.535Z,102424.48
2018-02-21T08:07:37.720Z,102419.87
2018-02-21T08:10:40.984Z,102422.58
2018-02-21T08:13:44.315Z,102428.54
2018-02-21T08:16:47.669Z,102432.86
2018-02-21T08:19:50.918Z,102431.23
2018-02-21T08:22:54.092Z,102435.21
2018-02-21T08:25:57.411Z,102437.42
2018-02-21T08:29:00.698Z,102440.49
2018-02-21T08:32:04.022Z,102449.05
2018-02-21T08:35:07.220Z,102453.91
2018-02-21T08:38:10.485Z,102456.79
2018-02-21T08:41:13.795Z,102457.01
2018-02-21T08:44:17.063Z,102459.64
2018-02-21T08:47:20.633Z,102462.78
2018-02-21T08:50:24.354Z,102455.58
2018-02-21T08:53:27.648Z,102460.51
2018-02-21T08:56:30.883Z,102460.51
2018-02-21T08:59:34.088Z,102453.21
2018-02-21T09:02:37.407Z,102455.49
2018-02-21T09:05:40.674Z,102456.88
2018-02-21T09:08:43.971Z,102456.79
2018-02-21T09:11:47.317Z,102460.51
2018-02-21T09:14:50.572Z,102457.75
2018-02-21T09:17:53.875Z,102466.39
2018-02-21T09:20:57.218Z,102466.07
2018-02-21T09:24:00.488Z,102463.46
2018-02-21T09:27:03.695Z,102465.62
2018-02-21T09:30:06.852Z,102465.10
2018-02-21T09:33:10.138Z,102471.31
2018-02-21T09:36:13.466Z,102469.91
2018-02-21T09:39:17.170Z,102475.39
2018-02-21T09:42:20.497Z,102469.61
2018-02-21T09:45:23.654Z,102466.00
2018-02-21T09:48:26.936Z,102465.48
2018-02-21T09:51:30.299Z,102453.57
2018-02-21T09:54:33.490Z,102454.77
2018-02-21T09:57:36.774Z,102461.21
2018-02-21T10:00:40.030Z,102464.90
2018-02-21T10:03:43.200Z,102464.48
2018-02-21T10:06:46.645Z,102459.13
2018-02-21T10:09:49.939Z,102465.23
2018-02-21T10:12:53.160Z,102458.05
2018-02-21T10:15:56.432Z,102461.79
2018-02-21T10:18:59.608Z,102455.47
2018-02-21T10:22:02.745Z,102456.00
2018-02-21T10:25:06.035Z,102449.72
2018-02-21T10:28:09.321Z,102451.44
2018-02-21T10:31:12.532Z,102450.12
2018-02-21T10:34:15.831Z,102441.42
2018-02-21T10:37:20.357Z,102437.75
2018-02-21T10:40:23.645Z,102429.37
2018-02-21T10:43:26.844Z,102424.15
2018-02-21T10:46:30.107Z,102420.74
2018-02-21T10:49:33.397Z,102419.30
2018-02-21T10:52:36.656Z,102415.70
2018-02-21T10:55:39.839Z,102413.01
2018-02-21T10:58:43.033Z,102408.21
2018-02-21T11:01:46.217Z,102398.36
2018-02-21T11:04:49.527Z,102395.26
2018-02-21T11:07:52.738Z,102390.64
2018-02-21T11:10:56.050Z,102380.23
2018-02-21T11:13:59.314Z,102380.75
2018-02-21T11:17:02.513Z,102380.97
2018-02-21T11:20:05.722Z,102376.38
2018-02-21T11:23:08.958Z,102379.67
2018-02-21T11:26:12.248Z,102381.16
2018-02-21T11:29:15.560Z,102388.65
2018-02-21T11:32:18.884Z,102386.68
2018-02-21T11:35:22.144Z,102388.12
2018-02-21T11:38:25.435Z,102381.11
2018-02-21T11:41:29.059Z,102368.19
2018-02-21T11:44:32.322Z,102363.66
2018-02-21T11:47:35.598Z,102360.46
2018-02-21T11:50:38.838Z,102360.61
2018-02-21T11:53:42.078Z,102355.85
2018-02-21T11:56:45.344Z,102352.78
2018-02-21T11:59:48.621Z,102353.28
2018-02-21T12:02:51.764Z,102344.07
2018-02-21T12:05:55.005Z,102342.53
2018-02-21T12:08:58.224Z,102343.90
2018-02-21T12:12:01.406Z,102342.14
2018-02-21T12:15:04.703Z,102337.60
2018-02-21T12:18:08.007Z,102342.48
2018-02-21T12:21:11.309Z,102335.88
2018-02-21T12:24:14.506Z,102338.34
2018-02-21T12:27:17.861Z,102336.75
2018-02-21T12:30:21.100Z,102332.10
2018-02-21T12:33:24.326Z,102330.39
2018-02-21T12:36:27.603Z,102324.78
2018-02-21T12:39:35.093Z,102319.56
2018-02-21T12:42:38.392Z,102325.52
2018-02-21T12:45:41.678Z,102319.10
2018-02-21T12:48:45.120Z,102311.76
2018-02-21T12:51:48.369Z,102303.55
2018-02-21T12:54:51.681Z,102298.01
2018-02-21T12:57:54.980Z,102291.82
2018-02-21T13:00:58.681Z,102281.27
2018-02-21T13:04:01.972Z,102274.00
2018-02-21T13:07:05.217Z,102275.02
2018-02-21T13:10:08.472Z,102271.73
2018-02-21T13:13:11.787Z,102260.68
2018-02-21T13:16:15.057Z,102262.81
2018-02-21T13:19:18.429Z,102266.68
2018-02-21T13:22:21.593Z,102261.41
2018-02-21T13:25:24.828Z,102256.13
2018-02-21T13:28:28.038Z,102251.52
2018-02-21T13:31:31.361Z,102247.08
2018-02-21T13:34:34.661Z,102243.94
2018-02-21T13:37:37.857Z,102237.54
2018-02-21T13:40:41.289Z,102239.08
2018-02-21T13:43:44.472Z,102233.54
2018-02-21T13:46:48.971Z,102231.30
2018-02-21T13:49:52.318Z,102227.36
2018-02-21T13:52:55.562Z,102222.82
2018-02-21T13:55:58.905Z,102219.48
2018-02-21T13:59:02.179Z,102219.40
2018-02-21T14:02:06.172Z,102207.53
2018-02-21T14:05:09.407Z,102205.16
2018-02-21T14:08:12.652Z,102207.23
2018-02-21T14:11:15.921Z,102210.47
2018-02-21T14:14:19.376Z,102206.15
2018-02-21T14:17:22.654Z,102202.09
2018-02-21T14:20:26.014Z,102192.33
2018-02-21T14:23:29.184Z,102197.98
2018-02-21T14:26:32.442Z,102188.26
2018-02-21T14:29:35.781Z,102187.16
2018-02-21T14:32:39.202Z,102181.23
2018-02-21T14:35:42.446Z,102181.88
2018-02-21T14:38:45.603Z,102187.91
2018-02-21T14:41:48.940Z,102178.02
2018-02-21T14:44:52.132Z,102187.19
2018-02-21T14:47:55.295Z,102184.47
2018-02-21T14:50:58.580Z,102190.12
2018-02-21T14:54:01.906Z,102191.01
2018-02-21T14:57:05.174Z,102195.94
2018-02-21T15:00:08.510Z,102194.31
2018-02-21T15:03:11.803Z,102194.37
2018-02-21T15:06:15.006Z,102199.54
2018-02-21T15:09:18.541Z,102205.01
2018-02-21T15:12:21.884Z,102210.82
2018-02-21T15:15:25.092Z,102207.89
2018-02-21T15:18:28.449Z,102209.81
2018-02-21T15:21:31.618Z,102206.98
2018-02-21T15:24:34.986Z,102206.74
2018-02-21T15:27:38.260Z,102204.21
2018-02-21T15:30:42.165Z,102214.73
2018-02-21T15:33:45.467Z,102208.33
2018-02-21T15:36:48.940Z,102207.75
2018-02-21T15:39:52.280Z,102205.07
2018-02-21T15:42:55.648Z,102204.29
2018-02-21T15:45:58.906Z,102204.83
2018-02-21T15:49:02.078Z,102205.65
2018-02-21T15:52:05.329Z,102203.33
2018-02-21T15:55:08.646Z,102206.49
2018-02-21T15:58:11.906Z,102205.13
2018-02-21T16:01:15.149Z,102203.69
2018-02-21T16:04:18.457Z,102200.23
2018-02-21T16:07:21.818Z,102208.96
2018-02-21T16:10:25.001Z,102205.32
2018-02-21T16:13:28.350Z,102210.21
2018-02-21T16:16:31.550Z,102209.97
2018-02-21T16:19:34.751Z,102208.78
2018-02-21T16:22:38.053Z,102212.15
2018-02-21T16:25:41.364Z,102211.14
2018-02-21T16:28:44.693Z,102205.23
2018-02-21T16:31:48.018Z,102208.13
2018-02-21T16:34:51.247Z,102205.64
2018-02-21T16:37:54.599Z,102204.19
2018-02-21T16:40:57.916Z,102205.46
2018-02-21T16:44:01.167Z,102209.38
2018-02-21T16:47:04.516Z,102210.61
2018-02-21T16:50:07.892Z,102216.73
2018-02-21T16:53:11.189Z,102219.59
2018-02-21T16:56:14.444Z,102223.83
2018-02-21T16:59:17.866Z,102224.76
2018-02-21T17:02:21.146Z,102232.78
2018-02-21T17:05:24.645Z,102236.00
2018-02-21T17:08:27.981Z,102244.88
2018-02-21T17:11:31.181Z,102248.29
2018-02-21T17:14:34.413Z,102246.04
2018-02-21T17:17:37.743Z,102251.76
2018-02-21T17:20:41.028Z,102254.03
2018-02-21T17:23:44.361Z,102262.85
2018-02-21T17:26:47.678Z,102261.51
2018-02-21T17:29:50.893Z,102264.10
2018-02-21T17:32:54.207Z,102264.93
2018-02-21T17:35:57.535Z,102274.90
2018-02-21T17:39:00.969Z,102279.54
2018-02-21T17:42:04.129Z,102288.32
2018-02-21T17:45:07.422Z,102287.87
2018-02-21T17:48:10.701Z,102288.23
2018-02-21T17:51:13.986Z,102293.72
2018-02-21T17:54:17.411Z,102293.83
2018-02-21T17:57:20.742Z,102300.52
2018-02-21T18:00:23.996Z,102302.24
2018-02-21T18:03:27.186Z,102306.79
2018-02-21T18:06:30.451Z,102304.12
2018-02-21T18:09:33.724Z,102303.77
2018-02-21T18:12:37.005Z,102306.31
2018-02-21T18:15:40.405Z,102307.78
2018-02-21T18:18:43.696Z,102313.67
2018-02-21T18:21:50.506Z,102319.27
2018-02-21T18:24:53.757Z,102323.84
2018-02-21T18:27:57.059Z,102320.04
2018-02-21T18:31:00.333Z,102320.66
2018-02-21T18:34:03.560Z,102322.79
2018-02-21T18:37:06.833Z,102328.27
2018-02-21T18:40:10.218Z,102324.61
2018-02-21T18:43:13.548Z,102326.95
2018-02-21T18:46:16.902Z,102329.51
2018-02-21T18:49:20.152Z,102328.05
2018-02-21T18:52:23.459Z,102333.53
2018-02-21T18:55:26.884Z,102337.71
2018-02-21T18:58:30.140Z,102335.82
2018-02-21T19:01:33.360Z,102339.59
2018-02-21T19:04:36.633Z,102338.75
2018-02-21T19:07:39.830Z,102340.98
2018-02-21T19:10:43.130Z,102347.08
2018-02-21T19:13:46.475Z,102343.62
2018-02-21T19:16:49.821Z,102342.80
2018-02-21T19:19:53.125Z,102348.10
2018-02-21T19:22:56.310Z,102351.57
2018-02-21T19:25:59.625Z,102351.05
2018-02-21T19:29:02.814Z,102351.49
2018-02-21T19:32:06.021Z,102352.81
2018-02-21T19:35:09.226Z,102355.23
2018-02-21T19:38:12.493Z,102354.40
2018-02-21T19:41:15.686Z,102348.63
2018-02-21T19:44:19.062Z,102352.14
2018-02-21T19:47:22.355Z,102352.73
2018-02-21T19:50:25.583Z,102360.01
2018-02-21T19:53:28.874Z,102357.43
2018-02-21T19:56:32.122Z,102358.94
2018-02-21T19:59:35.412Z,102358.11
2018-02-21T20:02:38.640Z,102364.58
2018-02-21T20:05:41.938Z,102361.73
2018-02-21T20:08:45.262Z,102370.31
2018-02-21T20:11:48.632Z,102370.24
2018-02-21T20:14:52.726Z,102378.15
2018-02-21T20:17:55.962Z,102372.46
2018-02-21T20:20:59.272Z,102376.97
2018-02-21T20:24:02.504Z,102385.97
2018-02-21T20:27:05.718Z,102381.08
2018-02-21T20:30:08.897Z,102381.81
2018-02-21T20:33:12.134Z,102385.82
2018-02-21T20:36:15.698Z,102388.01
2018-02-21T20:46:47.872Z,102392.31
2018-02-21T20:49:51.173Z,102392.02
2018-02-21T20:52:54.609Z,102398.97
2018-02-21T20:55:57.809Z,102403.04
2018-02-21T20:59:01.062Z,102391.83
2018-02-21T21:02:04.465Z,102393.61
2018-02-21T21:05:07.982Z,102393.45
2018-02-21T21:08:11.319Z,102391.86
2018-02-21T21:11:14.549Z,102391.53
2018-02-21T21:14:17.845Z,102396.82
2018-02-21T21:17:21.147Z,102400.08
2018-02-21T21:20:24.435Z,102401.69
2018-02-21T21:23:27.753Z,102397.05
2018-02-21T21:26:32.745Z,102396.58
2018-02-21T21:29:36.595Z,102394.42
2018-02-21T21:32:39.827Z,102389.59
2018-02-21T21:35:43.085Z,102390.71
2018-02-21T21:38:46.556Z,102389.81
2018-02-21T21:41:49.795Z,102386.01
2018-02-21T21:44:53.064Z,102380.87
2018-02-21T21:47:56.394Z,102377.64
2018-02-21T21:50:59.675Z,102382.78
2018-02-21T21:54:02.904Z,102378.11
2018-02-21T21:57:06.181Z,102377.39
2018-02-21T22:00:09.474Z,102380.19
2018-02-21T22:03:12.719Z,102378.66
2018-02-21T22:06:15.938Z,102378.08
2018-02-21T22:09:19.366Z,102378.75
2018-02-21T22:12:22.624Z,102375.93
2018-02-21T22:15:25.962Z,102375.60
2018-02-21T22:18:29.241Z,102378.74
2018-02-21T22:21:32.542Z,102370.58
2018-02-21T22:24:37.446Z,102370.92
2018-02-21T22:27:41.270Z,102366.48
2018-02-21T22:30:45.114Z,102370.34
2018-02-21T22:33:48.467Z,102365.99
2018-02-21T22:36:51.703Z,102368.66
2018-02-21T22:39:54.985Z,102367.09
2018-02-21T22:42:58.299Z,102370.16
2018-02-21T22:46:01.790Z,102362.04
2018-02-21T22:49:05.102Z,102364.67
2018-02-21T22:52:08.353Z,102359.57
2018-02-21T22:55:11.615Z,102360.58
2018-02-21T22:58:14.998Z,102363.43
2018-02-21T23:01:18.353Z,102365.03
2018-02-21T23:04:21.587Z,102363.82
2018-02-21T23:07:24.882Z,102366.15
2018-02-21T23:10:28.139Z,102362.63
2018-02-21T23:13:31.409Z,102363.25
2018-02-21T23:16:34.657Z,102364.75
2018-02-21T23:19:37.987Z,102366.92
2018-02-21T23:22:41.289Z,102364.53
2018-02-21T23:25:44.926Z,102354.40
2018-02-21T23:28:48.353Z,102361.89
2018-02-21T23:31:52.118Z,102361.11
2018-02-21T23:34:55.569Z,102354.65
2018-02-21T23:37:59.043Z,102352.85
2018-02-21T23:41:02.285Z,102359.39
2018-02-21T23:44:05.532Z,102363.34
2018-02-21T23:47:08.846Z,102360.39
2018-02-21T23:50:12.123Z,102358.10
2018-02-21T23:53:15.375Z,102359.65
2018-02-21T23:56:18.830Z,102353.49
2018-02-21T23:59:22.062Z,102355.22
